FBSK/GBE METAR and TAF weather

Enter ICAO airport designator
Station Type Date Time Source
FBSK METAR 2021/03/08 12:00 UTC NOAA

FBSK 081200Z 32009KT 290V350 9999 BKN030 FEW035CB 26/12 Q1014 NOSIG


Station Type Date Time Source
FBSK Decoded METAR 2021/03/08 12:00 UTC NOAA

Seretse Khama International Airport, Botswana (FBSK) 24-13S 025-55E 1005M
Mar 08, 2021 - 07:00 AM EST / 2021.03.08 1200 UTC
Wind: from the NW (320 degrees) at 10 MPH (9 KT) (direction variable):0
Visibility: greater than 7 mile(s):0
Sky conditions: mostly cloudy
Weather: Cumulonimbus clouds observed
Temperature: 78 F (26 C)
Dew Point: 53 F (12 C)
Relative Humidity: 41%
Pressure (altimeter): 29.94 in. Hg (1014 hPa)
ob: FBSK 081200Z 32009KT 290V350 9999 BKN030 FEW035CB 26/12 Q1014 NOSIG
cycle: 12

Station Type Date Time Source
FBSK TAF 2021/03/08 12:42 UTC NOAA

TAF TAF
AMD FBSK 081130Z 0812/0918 31005KT 9999 SCT030 FEW035CB PROB30
TEMPO 0812/0816 TSRA
BECMG 0817/0819 CAVOK

Example: see airport list